Terminal Aerodrome Forecast
Issued by NWS

Home | Current Version | Previous Version | Text Only | Print | Product List | Glossary On
Versions: 1 2 3 4 5 6 7 8 9 10 11 12 13 14 15 16 17
000
FTUS44 KLIX 291100
TAFMCB
TAF
KMCB 291120Z 2912/3012 36004KT 3SM BR OVC003
     FM291500 36004KT P6SM OVC008
     FM291700 VRB03KT P6SM OVC015
     FM300200 VRB03KT P6SM OVC008
     FM300700 35004KT P6SM OVC003=

USA.gov is the U.S. government's official web portal to all federal, state and local government web resources and services.